createdAt,value
2023-03-02T00:01:53.549Z,8.70
2023-03-02T00:04:22.284Z,9.25
2023-03-02T00:06:51.704Z,8.52
2023-03-02T00:09:19.367Z,9.30
2023-03-02T00:11:47.011Z,10.35
2023-03-02T00:14:14.526Z,9.35
2023-03-02T00:16:42.033Z,9.60
2023-03-02T00:19:09.547Z,8.98
2023-03-02T00:21:37.073Z,10.20
2023-03-02T00:24:06.424Z,9.88
2023-03-02T00:26:34.543Z,9.50
2023-03-02T00:29:02.229Z,9.85
2023-03-02T00:31:29.750Z,9.60
2023-03-02T00:33:57.300Z,9.35
2023-03-02T00:36:24.871Z,9.57
2023-03-02T00:38:53.186Z,10.18
2023-03-02T00:41:22.431Z,9.55
2023-03-02T02:14:00.674Z,10.13
2023-03-02T02:16:28.386Z,10.10
2023-03-02T02:18:56.053Z,9.95
2023-03-02T02:21:24.320Z,9.38
2023-03-02T02:23:58.402Z,9.15
2023-03-02T02:26:28.396Z,9.60
2023-03-02T02:28:58.740Z,8.90
2023-03-02T02:31:29.727Z,9.75
2023-03-02T02:33:59.179Z,10.32
2023-03-02T02:36:33.231Z,9.85
2023-03-02T02:39:02.695Z,9.13
2023-03-02T02:41:34.387Z,10.13
2023-03-02T02:46:29.708Z,8.75
2023-03-02T02:48:57.424Z,9.90
2023-03-02T02:51:27.122Z,10.32
2023-03-02T02:53:58.644Z,11.13
2023-03-02T02:58:56.537Z,9.32
2023-03-02T03:01:25.854Z,10.20
2023-03-02T03:03:55.016Z,9.20
2023-03-02T03:06:25.619Z,9.85
2023-03-02T03:09:00.802Z,9.57
2023-03-02T03:11:29.266Z,9.63
2023-03-02T03:14:01.401Z,9.82
2023-03-02T03:16:30.113Z,10.23
2023-03-02T03:18:59.244Z,10.00
2023-03-02T03:21:26.738Z,9.85
2023-03-02T03:23:54.426Z,9.80
2023-03-02T03:26:22.015Z,10.30
2023-03-02T03:28:49.552Z,10.02
2023-03-02T03:31:18.525Z,10.55
2023-03-02T03:33:46.228Z,10.82
2023-03-02T03:36:13.887Z,9.82
2023-03-02T03:38:41.386Z,10.68
2023-03-02T03:41:08.897Z,11.00
2023-03-02T03:43:36.430Z,10.48
2023-03-02T03:46:04.010Z,9.88
2023-03-02T03:48:32.969Z,10.57
2023-03-02T03:51:00.679Z,10.27
2023-03-02T03:53:28.231Z,11.35
2023-03-02T03:55:56.882Z,10.55
2023-03-02T03:58:24.939Z,10.00
2023-03-02T04:00:52.607Z,9.77
2023-03-02T04:03:20.828Z,10.48
2023-03-02T04:05:49.925Z,10.82
2023-03-02T04:08:17.440Z,10.20
2023-03-02T04:10:45.183Z,10.25
2023-03-02T04:13:13.158Z,9.88
2023-03-02T04:15:41.693Z,10.27
2023-03-02T04:18:09.255Z,10.13
2023-03-02T04:20:36.831Z,11.07
2023-03-02T04:23:05.722Z,10.70
2023-03-02T04:25:33.308Z,11.02
2023-03-02T04:28:00.796Z,10.52
2023-03-02T04:30:28.348Z,10.77
2023-03-02T04:32:57.382Z,10.20
2023-03-02T04:35:25.242Z,10.35
2023-03-02T04:37:52.734Z,10.52
2023-03-02T04:40:21.910Z,11.52
2023-03-02T04:42:49.516Z,10.25
2023-03-02T04:45:17.132Z,10.15
2023-03-02T04:47:44.605Z,11.07
2023-03-02T04:50:13.193Z,10.18
2023-03-02T04:52:40.978Z,9.98
2023-03-02T04:55:08.913Z,9.73
2023-03-02T04:57:37.705Z,9.88
2023-03-02T05:00:07.376Z,10.10
2023-03-02T05:02:34.981Z,10.75
2023-03-02T05:05:02.586Z,10.55
2023-03-02T05:07:30.151Z,10.93
2023-03-02T05:09:57.649Z,9.80
2023-03-02T05:12:25.082Z,9.63
2023-03-02T05:14:53.986Z,9.63
2023-03-02T05:17:21.522Z,9.60
2023-03-02T05:19:49.034Z,10.23
2023-03-02T05:22:16.550Z,10.85
2023-03-02T05:24:43.997Z,11.02
2023-03-02T05:27:11.531Z,9.82
2023-03-02T05:29:39.045Z,10.30
2023-03-02T05:32:08.169Z,10.55
2023-03-02T05:34:35.717Z,10.50
2023-03-02T05:37:03.236Z,10.68
2023-03-02T05:39:30.768Z,9.43
2023-03-02T05:41:58.311Z,10.52
2023-03-02T05:44:25.834Z,11.40
2023-03-02T05:46:53.373Z,9.93
2023-03-02T05:49:22.216Z,10.00
2023-03-02T05:51:49.756Z,10.18
2023-03-02T05:54:17.273Z,10.10
2023-03-02T05:56:44.792Z,10.10
2023-03-02T05:59:12.372Z,10.40
2023-03-02T06:01:39.925Z,10.57
2023-03-02T06:04:07.519Z,10.95
2023-03-02T06:06:36.725Z,10.23
2023-03-02T06:09:04.472Z,10.38
2023-03-02T06:11:31.984Z,11.65
2023-03-02T06:13:59.453Z,10.45
2023-03-02T06:16:27.076Z,11.18
2023-03-02T06:18:54.616Z,10.50
2023-03-02T06:21:22.158Z,11.73
2023-03-02T06:23:51.060Z,12.07
2023-03-02T06:26:18.568Z,10.52
2023-03-02T06:28:52.968Z,10.50
2023-03-02T06:31:21.568Z,11.70
2023-03-02T06:33:49.146Z,12.13
2023-03-02T06:36:17.034Z,11.95
2023-03-02T06:38:44.704Z,10.52
2023-03-02T06:41:13.613Z,12.40
2023-03-02T06:43:41.169Z,11.77
2023-03-02T06:46:08.788Z,12.23
2023-03-02T06:48:36.324Z,11.40
2023-03-02T06:51:03.824Z,13.70
2023-03-02T06:53:31.393Z,13.07
2023-03-02T06:55:58.915Z,13.52
2023-03-02T06:58:27.748Z,14.38
2023-03-02T07:00:55.259Z,14.90
2023-03-02T07:03:22.782Z,14.10
2023-03-02T07:05:51.767Z,14.70
2023-03-02T07:08:19.586Z,14.77
2023-03-02T07:10:47.160Z,13.77
2023-03-02T07:13:14.715Z,15.25
2023-03-02T07:15:43.616Z,15.23
2023-03-02T07:18:11.114Z,15.13
2023-03-02T07:20:39.464Z,14.27
2023-03-02T07:23:06.976Z,14.27
2023-03-02T07:25:34.514Z,14.50
2023-03-02T07:28:02.010Z,14.52
2023-03-02T07:30:29.620Z,14.38
2023-03-02T07:32:58.625Z,14.85
2023-03-02T07:35:26.205Z,13.45
2023-03-02T07:37:53.752Z,14.93
2023-03-02T07:40:21.246Z,14.55
2023-03-02T07:42:48.712Z,14.07
2023-03-02T07:45:16.821Z,14.93
2023-03-02T07:47:44.484Z,16.30
2023-03-02T07:50:13.741Z,14.27
2023-03-02T07:52:41.263Z,15.57
2023-03-02T07:55:09.255Z,13.95
2023-03-02T07:57:36.884Z,13.20
2023-03-02T08:00:04.542Z,14.00
2023-03-02T08:02:33.511Z,12.45
2023-03-02T08:05:01.041Z,12.48
2023-03-02T08:07:29.950Z,12.32
2023-03-02T08:09:57.983Z,12.90
2023-03-02T08:12:25.530Z,12.25
2023-03-02T08:14:52.996Z,12.60
2023-03-02T08:17:20.680Z,13.77
2023-03-02T08:19:48.674Z,11.13
2023-03-02T08:22:16.236Z,12.95
2023-03-02T08:24:45.054Z,11.40
2023-03-02T08:27:13.976Z,11.63
2023-03-02T08:29:41.494Z,11.98
2023-03-02T08:32:09.328Z,12.18
2023-03-02T08:34:37.219Z,11.23
2023-03-02T08:37:04.747Z,11.00
2023-03-02T08:39:33.020Z,10.35
2023-03-02T08:42:01.983Z,10.95
2023-03-02T08:44:29.484Z,11.15
2023-03-02T08:46:56.992Z,11.07
2023-03-02T08:49:24.480Z,11.07
2023-03-02T08:51:53.608Z,10.98
2023-03-02T08:54:21.489Z,11.13
2023-03-02T08:56:49.003Z,11.98
2023-03-02T08:59:18.240Z,12.25
2023-03-02T09:01:45.874Z,11.73
2023-03-02T09:04:13.559Z,11.55
2023-03-02T09:06:42.557Z,11.40
2023-03-02T09:09:11.310Z,11.82
2023-03-02T09:11:38.989Z,12.10
2023-03-02T09:14:06.546Z,12.07
2023-03-02T09:16:35.607Z,12.10
2023-03-02T09:19:03.108Z,12.13
2023-03-02T09:21:30.751Z,12.30
2023-03-02T09:23:58.933Z,11.10
2023-03-02T09:26:27.065Z,11.82
2023-03-02T09:28:54.636Z,11.98
2023-03-02T09:31:22.275Z,11.68
2023-03-02T09:33:51.094Z,12.82
2023-03-02T09:36:20.294Z,12.68
2023-03-02T09:38:47.918Z,11.85
2023-03-02T09:41:29.851Z,11.35
2023-03-02T09:44:02.956Z,11.70
2023-03-02T09:46:32.607Z,11.70
2023-03-02T09:49:11.716Z,11.57
2023-03-02T09:51:44.812Z,11.57
2023-03-02T09:54:13.386Z,13.02
2023-03-02T09:56:45.728Z,12.60
2023-03-02T09:59:18.939Z,12.05
2023-03-02T10:01:49.077Z,12.23
2023-03-02T10:04:22.743Z,11.95
2023-03-02T10:06:53.426Z,11.43
2023-03-02T10:09:20.992Z,12.35
2023-03-02T10:11:55.189Z,12.90
2023-03-02T10:14:25.703Z,11.10
2023-03-02T10:16:55.022Z,12.25
2023-03-02T10:19:26.147Z,11.60
2023-03-02T10:21:56.489Z,11.98
2023-03-02T10:24:29.124Z,11.20
2023-03-02T10:26:59.192Z,11.43
2023-03-02T10:29:38.253Z,10.80
2023-03-02T10:32:11.649Z,10.48
2023-03-02T10:34:40.572Z,10.10
2023-03-02T10:37:12.671Z,10.05
2023-03-02T10:39:40.171Z,9.70
2023-03-02T10:42:08.531Z,9.95
2023-03-02T10:44:38.016Z,8.82
2023-03-02T10:47:06.079Z,9.95
2023-03-02T10:49:34.457Z,9.82
2023-03-02T10:52:04.196Z,10.07
2023-03-02T10:54:32.654Z,9.63
2023-03-02T10:57:01.260Z,8.20
2023-03-02T10:59:40.834Z,8.20
2023-03-02T11:02:15.950Z,6.80
2023-03-02T11:04:43.751Z,7.60
2023-03-02T11:07:17.384Z,7.00
2023-03-02T11:09:45.053Z,7.25
2023-03-02T11:12:15.313Z,7.95
2023-03-02T11:14:43.513Z,6.63
2023-03-02T11:17:31.490Z,9.30
2023-03-02T11:19:59.032Z,6.38
2023-03-02T11:22:32.837Z,6.53
2023-03-02T11:25:01.419Z,6.65
2023-03-02T11:27:30.764Z,6.90
2023-03-02T11:29:59.474Z,6.55
2023-03-02T11:32:30.218Z,6.43
2023-03-02T11:34:58.969Z,6.00
2023-03-02T11:37:29.335Z,5.85
2023-03-02T11:40:01.378Z,5.53
2023-03-02T11:42:30.984Z,5.80
2023-03-02T11:45:01.594Z,5.80
2023-03-02T11:47:29.312Z,6.10
2023-03-02T11:49:58.279Z,6.55
2023-03-02T11:52:27.408Z,6.32
2023-03-02T11:54:55.982Z,6.45
2023-03-02T11:57:28.747Z,6.85
2023-03-02T11:59:58.470Z,6.28
2023-03-02T12:02:26.164Z,5.97
2023-03-02T12:05:02.460Z,6.20
2023-03-02T12:07:30.095Z,6.13
2023-03-02T12:09:58.955Z,5.95
2023-03-02T12:12:35.607Z,6.50
2023-03-02T12:15:03.149Z,5.88
2023-03-02T12:17:32.494Z,5.88
2023-03-02T12:20:27.175Z,6.22
2023-03-02T12:22:55.069Z,6.00
2023-03-02T12:25:27.619Z,5.65
2023-03-02T12:27:56.844Z,6.30
2023-03-02T12:30:26.822Z,5.68
2023-03-02T12:33:02.258Z,5.25
2023-03-02T12:35:31.440Z,5.80
2023-03-02T12:38:00.701Z,5.80
2023-03-02T12:40:40.627Z,5.97
2023-03-02T12:43:26.582Z,5.13
2023-03-02T12:46:03.577Z,6.07
2023-03-02T12:48:32.791Z,5.47
2023-03-02T12:51:01.644Z,5.88
2023-03-02T12:53:29.724Z,5.35
2023-03-02T12:55:57.283Z,5.30
2023-03-02T12:58:28.663Z,5.13
2023-03-02T13:00:57.295Z,6.22
2023-03-02T13:03:26.270Z,4.68
2023-03-02T13:06:01.015Z,5.70
2023-03-02T13:08:29.539Z,5.82
2023-03-02T13:10:58.441Z,5.35
2023-03-02T13:13:28.660Z,4.57
2023-03-02T13:15:57.791Z,4.80
2023-03-02T13:18:26.529Z,5.03
2023-03-02T13:20:54.051Z,5.40
2023-03-02T13:23:21.566Z,4.97
2023-03-02T13:25:49.979Z,5.22
2023-03-02T13:28:28.472Z,4.82
2023-03-02T13:31:00.218Z,5.00
2023-03-02T13:33:28.576Z,5.10
2023-03-02T13:35:57.021Z,5.10
2023-03-02T13:38:25.770Z,6.15
2023-03-02T13:40:54.034Z,5.15
2023-03-02T13:43:39.655Z,5.40
2023-03-02T13:46:08.702Z,5.43
2023-03-02T13:48:36.290Z,6.72
2023-03-02T13:51:04.937Z,6.65
2023-03-02T13:53:34.729Z,6.25
2023-03-02T13:56:02.745Z,6.85
2023-03-02T13:58:32.797Z,8.30
2023-03-02T14:01:01.715Z,7.72
2023-03-02T14:03:30.262Z,9.50
2023-03-02T14:05:58.625Z,9.13
2023-03-02T14:08:26.490Z,10.93
2023-03-02T14:10:55.140Z,11.18
2023-03-02T14:13:23.343Z,12.13
2023-03-02T14:15:52.400Z,12.73
2023-03-02T14:18:27.763Z,12.07
2023-03-02T14:20:55.605Z,12.98
2023-03-02T14:23:23.220Z,12.13
2023-03-02T14:25:50.945Z,11.98
2023-03-02T14:28:20.996Z,12.85
2023-03-02T14:30:48.576Z,13.45
2023-03-02T14:33:17.316Z,15.25
2023-03-02T14:35:46.205Z,16.20
2023-03-02T14:38:13.755Z,15.80
2023-03-02T14:40:41.281Z,16.27
2023-03-02T14:43:10.016Z,18.15
2023-03-02T14:45:37.503Z,18.70
2023-03-02T14:48:05.185Z,18.50
2023-03-02T14:50:34.277Z,19.88
2023-03-02T14:53:03.193Z,18.70
2023-03-02T14:55:31.620Z,19.35
2023-03-02T14:58:00.434Z,20.27
2023-03-02T15:00:28.375Z,20.88
2023-03-02T15:02:56.306Z,21.48
2023-03-02T15:05:23.914Z,21.35
2023-03-02T15:07:53.560Z,21.20
2023-03-02T15:10:23.245Z,24.13
2023-03-02T15:12:50.789Z,23.73
2023-03-02T15:15:18.571Z,22.42
2023-03-02T15:17:46.087Z,21.23
2023-03-02T15:20:15.159Z,21.70
2023-03-02T15:22:42.712Z,20.27
2023-03-02T15:25:10.830Z,20.92
2023-03-02T15:27:39.695Z,21.85
2023-03-02T15:30:07.717Z,20.63
2023-03-02T15:32:36.957Z,21.50
2023-03-02T15:35:05.094Z,20.67
2023-03-02T15:37:32.571Z,21.35
2023-03-02T15:40:00.099Z,20.13
2023-03-02T15:42:27.737Z,19.85
2023-03-02T15:44:56.640Z,20.58
2023-03-02T15:47:24.118Z,19.13
2023-03-02T15:49:51.694Z,21.13
2023-03-02T15:52:19.922Z,19.35
2023-03-02T15:54:47.440Z,22.92
2023-03-02T15:57:15.115Z,20.10
2023-03-02T15:59:43.597Z,20.33
2023-03-02T16:02:12.729Z,19.75
2023-03-02T16:04:40.441Z,23.00
2023-03-02T16:07:08.064Z,19.58
2023-03-02T16:09:35.498Z,19.58
2023-03-02T16:12:03.005Z,19.08
2023-03-02T16:14:30.550Z,19.33
2023-03-02T16:16:58.172Z,18.48
2023-03-02T16:19:27.134Z,21.50
2023-03-02T16:21:54.607Z,20.13
2023-03-02T16:24:22.164Z,19.10
2023-03-02T16:26:50.854Z,18.65
2023-03-02T16:29:18.343Z,18.77
2023-03-02T16:31:46.705Z,20.17
2023-03-02T16:34:14.373Z,17.33
2023-03-02T16:36:43.372Z,18.20
2023-03-02T16:39:11.499Z,19.10
2023-03-02T16:41:39.407Z,20.42
2023-03-02T16:44:07.290Z,18.77
2023-03-02T16:46:36.639Z,19.08
2023-03-02T16:49:04.193Z,19.05
2023-03-02T16:51:31.703Z,19.13
2023-03-02T16:54:00.538Z,20.40
2023-03-02T16:56:28.115Z,20.70
2023-03-02T16:58:55.761Z,21.55
2023-03-02T17:01:24.040Z,22.48
2023-03-02T17:03:51.803Z,21.15
2023-03-02T17:06:20.039Z,22.10
2023-03-02T17:08:47.529Z,22.08
2023-03-02T17:11:16.681Z,21.23
2023-03-02T17:13:44.221Z,22.20
2023-03-02T17:16:11.812Z,22.88
2023-03-02T17:18:40.850Z,23.08
2023-03-02T17:21:08.856Z,23.05
2023-03-02T17:23:37.036Z,24.45
2023-03-02T17:26:04.824Z,24.63
2023-03-02T17:28:33.716Z,24.80
2023-03-02T17:31:03.487Z,24.15
2023-03-02T17:33:33.776Z,24.50
2023-03-02T17:36:03.411Z,22.48
2023-03-02T17:38:30.949Z,23.30
2023-03-02T17:41:02.028Z,21.90
2023-03-02T17:43:31.242Z,21.83
2023-03-02T17:46:08.072Z,21.15
2023-03-02T17:48:35.580Z,20.60
2023-03-02T17:51:03.081Z,23.80
2023-03-02T17:53:30.691Z,23.33
2023-03-02T17:55:58.169Z,21.73
2023-03-02T17:58:30.583Z,22.77
2023-03-02T18:01:05.193Z,23.38
2023-03-02T18:03:32.759Z,23.10
2023-03-02T18:06:00.226Z,24.20
2023-03-02T18:08:27.847Z,24.35
2023-03-02T18:10:55.342Z,22.95
2023-03-02T18:13:22.857Z,21.70
2023-03-02T18:15:50.427Z,22.42
2023-03-02T18:18:20.474Z,21.50
2023-03-02T18:20:48.005Z,23.67
2023-03-02T18:23:15.670Z,21.02
2023-03-02T18:25:43.121Z,21.67
2023-03-02T18:28:10.569Z,20.17
2023-03-02T18:30:38.052Z,20.45
2023-03-02T18:33:05.676Z,17.92
2023-03-02T18:35:34.773Z,19.10
2023-03-02T18:38:02.329Z,17.70
2023-03-02T18:40:29.900Z,19.33
2023-03-02T18:42:57.409Z,20.13
2023-03-02T18:45:25.956Z,17.65
2023-03-02T18:47:53.553Z,18.05
2023-03-02T18:50:21.478Z,17.40
2023-03-02T18:52:52.921Z,19.50
2023-03-02T18:57:47.916Z,14.95
2023-03-02T19:00:16.992Z,15.82
2023-03-02T19:02:44.501Z,15.20
2023-03-02T19:05:12.123Z,15.55
2023-03-02T19:07:39.636Z,15.75
2023-03-02T19:10:09.250Z,17.23
2023-03-02T19:12:36.732Z,15.75
2023-03-02T19:15:04.798Z,17.67
2023-03-02T19:17:32.297Z,15.75
2023-03-02T19:19:59.823Z,16.63
2023-03-02T19:22:27.338Z,17.52
2023-03-02T19:24:54.852Z,17.92
2023-03-02T19:27:23.676Z,16.63
2023-03-02T19:29:51.168Z,17.33
2023-03-02T19:32:20.086Z,16.02
2023-03-02T19:34:48.015Z,16.58
2023-03-02T19:37:15.532Z,16.02
2023-03-02T19:39:43.428Z,16.67
2023-03-02T19:42:11.379Z,17.25
2023-03-02T19:44:40.353Z,17.00
2023-03-02T19:47:07.804Z,17.80
2023-03-02T19:49:36.526Z,17.70
2023-03-02T19:52:04.254Z,17.98
2023-03-02T19:54:31.737Z,17.45
2023-03-02T19:56:59.341Z,18.55
2023-03-02T19:59:26.881Z,19.13
2023-03-02T20:01:56.295Z,17.33
2023-03-02T20:04:23.851Z,16.15
2023-03-02T20:06:51.364Z,16.30
2023-03-02T20:09:20.196Z,16.83
2023-03-02T20:11:47.846Z,16.17
2023-03-02T20:14:31.329Z,16.63
2023-03-02T20:17:01.963Z,16.98
2023-03-02T20:19:29.519Z,16.45
2023-03-02T20:21:57.021Z,15.30
2023-03-02T20:24:24.617Z,15.85
2023-03-02T20:26:52.119Z,12.20
2023-03-02T20:29:19.800Z,10.02
2023-03-02T20:31:47.453Z,10.50
2023-03-02T20:34:16.980Z,9.70
2023-03-02T20:36:45.027Z,9.80
2023-03-02T20:39:14.357Z,9.77
2023-03-02T20:41:42.131Z,10.13
2023-03-02T20:44:10.121Z,9.45
2023-03-02T20:46:40.358Z,9.57
2023-03-02T20:49:09.498Z,9.55
2023-03-02T20:51:39.059Z,9.52
2023-03-02T20:54:06.855Z,10.13
2023-03-02T20:56:34.488Z,10.27
2023-03-02T20:59:02.032Z,10.75
2023-03-02T21:01:29.798Z,10.20
2023-03-02T21:03:57.403Z,11.13
2023-03-02T21:06:25.072Z,12.07
2023-03-02T21:08:53.984Z,10.20
2023-03-02T21:11:22.023Z,8.48
2023-03-02T21:13:49.928Z,7.95
2023-03-02T21:16:18.876Z,6.82
2023-03-02T21:18:46.386Z,7.15
2023-03-02T21:21:14.439Z,7.80
2023-03-02T21:23:42.531Z,7.28
2023-03-02T21:26:11.663Z,7.53
2023-03-02T21:28:43.913Z,6.75
2023-03-02T21:31:11.928Z,7.72
2023-03-02T21:33:39.430Z,7.15
2023-03-02T21:36:07.393Z,7.55
2023-03-02T21:38:34.976Z,7.25
2023-03-02T21:41:02.447Z,7.93
2023-03-02T21:43:31.340Z,7.32
2023-03-02T21:46:01.169Z,7.85
2023-03-02T21:48:28.844Z,7.88
2023-03-02T21:50:56.329Z,7.78
2023-03-02T21:53:23.777Z,8.15
2023-03-02T21:55:54.823Z,7.18
2023-03-02T21:58:22.577Z,6.80
2023-03-02T22:00:51.517Z,7.72
2023-03-02T22:03:19.069Z,8.38
2023-03-02T22:05:46.614Z,7.50
2023-03-02T22:08:14.565Z,8.10
2023-03-02T22:10:43.116Z,8.23
2023-03-02T22:13:18.360Z,7.85
2023-03-02T22:15:46.035Z,8.43
2023-03-02T22:18:15.712Z,8.02
2023-03-02T22:20:44.629Z,7.78
2023-03-02T22:23:13.669Z,8.52
2023-03-02T22:25:41.624Z,7.97
2023-03-02T22:28:16.279Z,9.65
2023-03-02T22:30:43.841Z,9.65
2023-03-02T22:33:18.502Z,8.90
2023-03-02T22:35:46.113Z,9.07
2023-03-02T22:38:15.054Z,9.52
2023-03-02T22:40:42.858Z,8.45
2023-03-02T22:43:14.910Z,9.00
2023-03-02T22:45:42.763Z,9.40
2023-03-02T22:48:14.747Z,8.50
2023-03-02T22:50:44.032Z,8.63
2023-03-02T22:53:20.694Z,8.68
2023-03-02T22:55:48.592Z,8.20
2023-03-02T22:58:28.423Z,7.90
2023-03-02T23:00:56.214Z,7.75
2023-03-02T23:03:24.839Z,7.85
2023-03-02T23:05:53.780Z,9.85
2023-03-02T23:08:22.253Z,9.48
2023-03-02T23:10:50.627Z,8.10
2023-03-02T23:13:19.747Z,7.85
2023-03-02T23:15:47.919Z,9.10
2023-03-02T23:18:19.976Z,8.60
2023-03-02T23:20:47.624Z,7.63
2023-03-02T23:23:16.515Z,8.60
2023-03-02T23:25:44.071Z,8.77
2023-03-02T23:28:12.036Z,8.45
2023-03-02T23:30:39.565Z,9.00
2023-03-02T23:33:07.074Z,9.07
2023-03-02T23:35:34.648Z,9.68
2023-03-02T23:38:02.213Z,9.45
2023-03-02T23:40:31.074Z,9.05
2023-03-02T23:42:58.641Z,9.48
2023-03-02T23:45:26.449Z,8.68
2023-03-02T23:47:53.926Z,9.65
2023-03-02T23:50:21.395Z,8.93
2023-03-02T23:52:49.203Z,8.60
2023-03-02T23:55:16.785Z,8.88
2023-03-02T23:57:45.733Z,9.50
